createdAt,value
2018-06-27T00:00:49.280Z,987.59
2018-06-27T00:01:49.282Z,987.59
2018-06-27T00:02:49.287Z,987.59
2018-06-27T00:03:49.285Z,987.64
2018-06-27T00:04:49.291Z,987.60
2018-06-27T00:05:49.294Z,987.61
2018-06-27T00:06:49.298Z,987.58
2018-06-27T00:07:49.301Z,987.60
2018-06-27T00:08:49.300Z,987.58
2018-06-27T00:09:49.300Z,987.65
2018-06-27T00:10:49.308Z,987.65
2018-06-27T00:11:49.312Z,987.66
2018-06-27T00:12:49.313Z,987.64
2018-06-27T00:13:49.316Z,987.67
2018-06-27T00:14:49.315Z,987.65
2018-06-27T00:15:49.320Z,987.64
2018-06-27T00:16:49.324Z,987.66
2018-06-27T00:17:49.325Z,987.68
2018-06-27T00:18:49.326Z,987.67
2018-06-27T00:19:49.329Z,987.65
2018-06-27T00:20:49.386Z,987.71
2018-06-27T00:21:49.335Z,987.73
2018-06-27T00:22:49.337Z,987.73
2018-06-27T00:23:49.340Z,987.70
2018-06-27T00:24:49.342Z,987.62
2018-06-27T00:25:49.348Z,987.65
2018-06-27T00:26:49.352Z,987.65
2018-06-27T00:27:49.353Z,987.68
2018-06-27T00:28:49.352Z,987.66
2018-06-27T00:29:49.355Z,987.62
2018-06-27T00:30:49.357Z,987.66
2018-06-27T00:31:49.352Z,987.67
2018-06-27T00:32:49.367Z,987.69
2018-06-27T00:33:49.365Z,987.65
2018-06-27T00:34:49.367Z,987.66
2018-06-27T00:35:49.368Z,987.70
2018-06-27T00:36:49.369Z,987.68
2018-06-27T00:37:49.374Z,987.72
2018-06-27T00:38:49.373Z,987.70
2018-06-27T00:39:49.374Z,987.72
2018-06-27T00:40:49.377Z,987.70
2018-06-27T00:41:49.377Z,987.68
2018-06-27T00:42:49.380Z,987.71
2018-06-27T00:43:49.379Z,987.68
2018-06-27T00:44:49.386Z,987.67
2018-06-27T00:45:49.388Z,987.68
2018-06-27T00:46:49.386Z,987.68
2018-06-27T00:47:49.396Z,987.68
2018-06-27T00:48:49.386Z,987.68
2018-06-27T00:49:49.394Z,987.70
2018-06-27T00:50:49.396Z,987.72
2018-06-27T00:51:49.399Z,987.71
2018-06-27T00:52:49.397Z,987.67
2018-06-27T00:53:49.401Z,987.69
2018-06-27T00:54:49.408Z,987.66
2018-06-27T00:55:49.405Z,987.62
2018-06-27T00:56:49.412Z,987.64
2018-06-27T00:57:49.413Z,987.60
2018-06-27T00:58:49.407Z,987.64
2018-06-27T00:59:49.405Z,987.61
2018-06-27T01:00:49.414Z,987.61
2018-06-27T01:01:49.413Z,987.64
2018-06-27T01:02:49.414Z,987.63
2018-06-27T01:03:49.417Z,987.67
2018-06-27T01:04:49.418Z,987.66
2018-06-27T01:05:49.418Z,987.64
2018-06-27T01:06:49.419Z,987.60
2018-06-27T01:07:49.424Z,987.57
2018-06-27T01:08:49.421Z,987.58
2018-06-27T01:09:49.422Z,987.60
2018-06-27T01:10:49.421Z,987.54
2018-06-27T01:11:49.427Z,987.58
2018-06-27T01:12:49.427Z,987.53
2018-06-27T01:13:49.432Z,987.58
2018-06-27T01:14:49.435Z,987.53
2018-06-27T01:15:49.436Z,987.57
2018-06-27T01:16:49.436Z,987.58
2018-06-27T01:17:49.440Z,987.55
2018-06-27T01:18:49.437Z,987.56
2018-06-27T01:19:49.438Z,987.54
2018-06-27T01:20:49.438Z,987.51
2018-06-27T01:21:49.439Z,987.49
2018-06-27T01:22:49.441Z,987.52
2018-06-27T01:23:49.492Z,987.52
2018-06-27T01:24:49.437Z,987.50
2018-06-27T01:25:49.447Z,987.50
2018-06-27T01:26:49.443Z,987.49
2018-06-27T01:27:49.448Z,987.48
2018-06-27T01:28:49.449Z,987.49
2018-06-27T01:29:49.450Z,987.47
2018-06-27T01:30:49.453Z,987.47
2018-06-27T01:31:49.453Z,987.48
2018-06-27T01:32:49.456Z,987.52
2018-06-27T01:33:49.456Z,987.52
2018-06-27T01:34:49.457Z,987.58
2018-06-27T01:35:49.459Z,987.59
2018-06-27T01:36:49.457Z,987.58
2018-06-27T01:37:49.459Z,987.60
2018-06-27T01:38:49.461Z,987.65
2018-06-27T01:39:49.462Z,987.63
2018-06-27T01:40:49.462Z,987.63
2018-06-27T01:41:49.463Z,987.70
2018-06-27T01:42:49.465Z,987.68
2018-06-27T01:43:49.466Z,987.70
2018-06-27T01:44:49.463Z,987.68
2018-06-27T01:45:49.466Z,987.68
2018-06-27T01:46:49.464Z,987.65
2018-06-27T01:47:49.467Z,987.71
2018-06-27T01:48:49.470Z,987.67
2018-06-27T01:49:49.472Z,987.69
2018-06-27T01:50:49.477Z,987.71
2018-06-27T01:51:49.473Z,987.75
2018-06-27T01:52:49.475Z,987.70
2018-06-27T01:53:49.476Z,987.73
2018-06-27T01:54:49.476Z,987.68
2018-06-27T01:55:49.479Z,987.68
2018-06-27T01:56:49.477Z,987.68
2018-06-27T01:57:49.479Z,987.68
2018-06-27T01:58:49.480Z,987.74
2018-06-27T01:59:49.480Z,987.68
2018-06-27T02:00:49.474Z,987.74
2018-06-27T02:01:49.484Z,987.72
2018-06-27T02:02:49.485Z,987.72
2018-06-27T02:03:49.486Z,987.74
2018-06-27T02:04:49.484Z,987.73
2018-06-27T02:05:49.505Z,987.72
2018-06-27T02:06:49.486Z,987.75
2018-06-27T02:07:49.488Z,987.74
2018-06-27T02:08:49.481Z,987.66
2018-06-27T02:09:49.489Z,987.66
2018-06-27T02:10:49.487Z,987.67
2018-06-27T02:11:49.490Z,987.69
2018-06-27T02:12:49.491Z,987.66
2018-06-27T02:13:49.489Z,987.71
2018-06-27T02:14:49.492Z,987.69
2018-06-27T02:15:49.493Z,987.68
2018-06-27T02:16:49.488Z,987.69
2018-06-27T02:17:49.494Z,987.70
2018-06-27T02:18:49.496Z,987.76
2018-06-27T02:19:49.499Z,987.80
2018-06-27T02:20:49.497Z,987.74
2018-06-27T02:21:49.496Z,987.78
2018-06-27T02:22:49.492Z,987.75
2018-06-27T02:23:49.499Z,987.74
2018-06-27T02:24:49.500Z,987.73
2018-06-27T02:25:49.493Z,987.78
2018-06-27T02:26:49.501Z,987.75
2018-06-27T02:27:49.507Z,987.75
2018-06-27T02:28:49.503Z,987.76
2018-06-27T02:29:49.501Z,987.78
2018-06-27T02:30:49.501Z,987.74
2018-06-27T02:31:49.504Z,987.78
2018-06-27T02:32:49.501Z,987.74
2018-06-27T02:33:49.503Z,987.78
2018-06-27T02:34:49.506Z,987.74
2018-06-27T02:35:49.506Z,987.77
2018-06-27T02:36:49.505Z,987.79
2018-06-27T02:37:49.506Z,987.76
2018-06-27T02:38:49.507Z,987.74
2018-06-27T02:39:49.506Z,987.74
2018-06-27T02:40:49.511Z,987.75
2018-06-27T02:41:49.505Z,987.75
2018-06-27T02:42:49.513Z,987.77
2018-06-27T02:43:49.502Z,987.78
2018-06-27T02:44:49.503Z,987.76
2018-06-27T02:45:49.509Z,987.75
2018-06-27T02:46:49.512Z,987.74
2018-06-27T02:47:49.513Z,987.72
2018-06-27T02:48:49.519Z,987.70
2018-06-27T02:49:49.614Z,987.74
2018-06-27T02:50:49.513Z,987.73
2018-06-27T02:51:49.514Z,987.72
2018-06-27T02:52:49.513Z,987.75
2018-06-27T02:53:49.512Z,987.73
2018-06-27T02:54:49.513Z,987.73
2018-06-27T02:55:49.514Z,987.77
2018-06-27T02:56:49.515Z,987.75
2018-06-27T02:57:49.513Z,987.74
2018-06-27T02:58:49.519Z,987.76
2018-06-27T02:59:49.516Z,987.81
2018-06-27T03:00:49.517Z,987.77
2018-06-27T03:01:49.509Z,987.77
2018-06-27T03:02:49.516Z,987.84
2018-06-27T03:03:49.519Z,987.84
2018-06-27T03:04:49.518Z,987.86
2018-06-27T03:05:49.517Z,987.83
2018-06-27T03:06:49.521Z,987.85
2018-06-27T03:07:49.521Z,987.86
2018-06-27T03:08:49.520Z,987.87
2018-06-27T03:09:49.519Z,987.85
2018-06-27T03:10:49.520Z,987.84
2018-06-27T03:11:49.521Z,987.92
2018-06-27T03:12:49.517Z,987.88
2018-06-27T03:13:49.521Z,987.92
2018-06-27T03:14:49.521Z,987.88
2018-06-27T03:15:49.521Z,987.92
2018-06-27T03:16:49.521Z,987.87
2018-06-27T03:17:49.521Z,987.91
2018-06-27T03:18:49.523Z,987.91
2018-06-27T03:19:49.523Z,987.95
2018-06-27T03:20:49.523Z,987.98
2018-06-27T03:21:49.524Z,987.99
2018-06-27T03:22:49.521Z,987.98
2018-06-27T03:23:49.523Z,987.97
2018-06-27T03:24:49.522Z,987.97
2018-06-27T03:25:49.525Z,988.02
2018-06-27T03:26:49.527Z,988.00
2018-06-27T03:27:49.525Z,988.03
2018-06-27T03:28:49.526Z,988.02
2018-06-27T03:29:49.522Z,988.04
2018-06-27T03:30:49.529Z,988.04
2018-06-27T03:31:49.527Z,988.03
2018-06-27T03:32:49.528Z,988.05
2018-06-27T03:33:49.541Z,988.01
2018-06-27T03:34:49.530Z,988.00
2018-06-27T03:35:49.533Z,988.01
2018-06-27T03:36:49.529Z,988.02
2018-06-27T03:37:49.532Z,988.01
2018-06-27T03:38:49.532Z,988.04
2018-06-27T03:39:49.531Z,988.05
2018-06-27T03:40:49.531Z,988.07
2018-06-27T03:41:49.533Z,988.07
2018-06-27T03:42:49.532Z,988.10
2018-06-27T03:43:49.532Z,988.11
2018-06-27T03:44:49.530Z,988.13
2018-06-27T03:45:49.533Z,988.15
2018-06-27T03:46:49.533Z,988.14
2018-06-27T03:47:49.534Z,988.14
2018-06-27T03:48:49.536Z,988.13
2018-06-27T03:49:49.538Z,988.16
2018-06-27T03:50:49.534Z,988.10
2018-06-27T03:51:49.535Z,988.10
2018-06-27T03:52:49.536Z,988.11
2018-06-27T03:53:49.539Z,988.13
2018-06-27T03:54:49.537Z,988.12
2018-06-27T03:55:49.537Z,988.14
2018-06-27T03:56:49.546Z,988.14
2018-06-27T03:57:49.538Z,988.12
2018-06-27T03:58:49.535Z,988.10
2018-06-27T03:59:49.540Z,988.10
2018-06-27T04:00:49.533Z,988.09
2018-06-27T04:01:49.539Z,988.15
2018-06-27T04:02:49.541Z,988.11
2018-06-27T04:03:49.540Z,988.21
2018-06-27T04:04:49.543Z,988.17
2018-06-27T04:05:49.542Z,988.21
2018-06-27T04:06:49.564Z,988.20
2018-06-27T04:07:49.544Z,988.20
2018-06-27T04:08:49.544Z,988.22
2018-06-27T04:09:49.543Z,988.24
2018-06-27T04:10:49.545Z,988.25
2018-06-27T04:11:49.549Z,988.22
2018-06-27T04:12:49.611Z,988.20
2018-06-27T04:13:49.552Z,988.17
2018-06-27T04:14:49.546Z,988.19
2018-06-27T04:15:49.551Z,988.17
2018-06-27T04:16:49.544Z,988.18
2018-06-27T04:17:49.550Z,988.19
2018-06-27T04:18:49.551Z,988.18
2018-06-27T04:19:49.549Z,988.20
2018-06-27T04:20:49.545Z,988.24
2018-06-27T04:21:49.550Z,988.23
2018-06-27T04:22:49.551Z,988.19
2018-06-27T04:23:49.552Z,988.25
2018-06-27T04:24:49.552Z,988.22
2018-06-27T04:25:49.552Z,988.23
2018-06-27T04:26:49.555Z,988.23
2018-06-27T04:27:49.554Z,988.23
2018-06-27T04:28:49.556Z,988.27
2018-06-27T04:29:49.559Z,988.23
2018-06-27T04:30:49.557Z,988.29
2018-06-27T04:31:49.558Z,988.29
2018-06-27T04:32:49.553Z,988.31
2018-06-27T04:33:49.560Z,988.33
2018-06-27T04:34:49.563Z,988.31
2018-06-27T04:35:49.582Z,988.34
2018-06-27T04:36:49.571Z,988.30
2018-06-27T04:37:49.565Z,988.32
2018-06-27T04:38:49.566Z,988.30
2018-06-27T04:39:49.565Z,988.30
2018-06-27T04:40:49.566Z,988.33
2018-06-27T04:41:49.561Z,988.35
2018-06-27T04:42:49.571Z,988.33
2018-06-27T04:43:49.569Z,988.36
2018-06-27T04:44:49.570Z,988.36
2018-06-27T04:45:49.573Z,988.35
2018-06-27T04:46:49.572Z,988.33
2018-06-27T04:47:49.571Z,988.30
2018-06-27T04:48:49.573Z,988.33
2018-06-27T04:49:49.582Z,988.34
2018-06-27T04:50:49.577Z,988.36
2018-06-27T04:51:49.576Z,988.37
2018-06-27T04:52:49.579Z,988.41
2018-06-27T04:53:49.581Z,988.39
2018-06-27T04:54:49.593Z,988.38
2018-06-27T04:55:49.583Z,988.38
2018-06-27T04:56:49.581Z,988.42
2018-06-27T04:57:49.585Z,988.43
2018-06-27T04:58:49.588Z,988.46
2018-06-27T04:59:49.591Z,988.47
2018-06-27T05:00:49.587Z,988.46
2018-06-27T05:01:49.665Z,988.45
2018-06-27T05:02:49.589Z,988.49
2018-06-27T05:03:49.593Z,988.49
2018-06-27T05:04:49.595Z,988.53
2018-06-27T05:05:49.594Z,988.52
2018-06-27T05:06:49.593Z,988.54
2018-06-27T05:07:49.597Z,988.54
2018-06-27T05:08:49.597Z,988.50
2018-06-27T05:09:49.614Z,988.54
2018-06-27T05:10:49.600Z,988.52
2018-06-27T05:11:49.606Z,988.50
2018-06-27T05:12:49.604Z,988.46
2018-06-27T05:13:49.606Z,988.47
2018-06-27T05:14:49.606Z,988.50
2018-06-27T05:15:49.609Z,988.53
2018-06-27T05:16:49.604Z,988.54
2018-06-27T05:17:49.610Z,988.54
2018-06-27T05:18:49.614Z,988.56
2018-06-27T05:19:49.615Z,988.57
2018-06-27T05:20:49.615Z,988.56
2018-06-27T05:21:49.624Z,988.55
2018-06-27T05:22:49.621Z,988.60
2018-06-27T05:23:49.622Z,988.65
2018-06-27T05:24:49.623Z,988.59
2018-06-27T05:25:49.621Z,988.63
2018-06-27T05:26:49.623Z,988.60
2018-06-27T05:27:49.628Z,988.61
2018-06-27T05:28:49.628Z,988.63
2018-06-27T05:29:49.630Z,988.65
2018-06-27T05:30:49.636Z,988.66
2018-06-27T05:31:49.634Z,988.66
2018-06-27T05:32:49.632Z,988.63
2018-06-27T05:33:49.642Z,988.66
2018-06-27T05:34:49.645Z,988.62
2018-06-27T05:35:49.643Z,988.60
2018-06-27T05:36:49.646Z,988.58
2018-06-27T05:37:49.647Z,988.62
2018-06-27T05:38:49.648Z,988.62
2018-06-27T05:39:49.650Z,988.68
2018-06-27T05:40:49.646Z,988.64
2018-06-27T05:41:49.657Z,988.68
2018-06-27T05:42:49.657Z,988.64
2018-06-27T05:43:49.657Z,988.63
2018-06-27T05:44:49.661Z,988.68
2018-06-27T05:45:49.662Z,988.66
2018-06-27T05:46:49.665Z,988.69
2018-06-27T05:47:49.667Z,988.67
2018-06-27T05:48:49.668Z,988.66
2018-06-27T05:49:49.669Z,988.68
2018-06-27T05:50:49.672Z,988.69
2018-06-27T05:51:49.674Z,988.65
2018-06-27T05:52:49.675Z,988.68
2018-06-27T05:53:49.688Z,988.70
2018-06-27T05:54:49.679Z,988.71
2018-06-27T05:55:49.681Z,988.70
2018-06-27T05:56:49.686Z,988.73
2018-06-27T05:57:49.682Z,988.74
2018-06-27T05:58:49.687Z,988.77
2018-06-27T05:59:49.687Z,988.76
2018-06-27T06:00:49.693Z,988.75
2018-06-27T06:01:49.691Z,988.76
2018-06-27T06:02:49.695Z,988.80
2018-06-27T06:03:49.697Z,988.80
2018-06-27T06:04:49.705Z,988.78
2018-06-27T06:05:49.696Z,988.78
2018-06-27T06:06:49.702Z,988.84
2018-06-27T06:07:49.705Z,988.80
2018-06-27T06:08:49.706Z,988.82
2018-06-27T06:09:49.712Z,988.83
2018-06-27T06:10:49.706Z,988.72
2018-06-27T06:11:49.711Z,988.80
2018-06-27T06:12:49.718Z,988.79
2018-06-27T06:13:49.716Z,988.84
2018-06-27T06:14:49.715Z,988.83
2018-06-27T06:15:49.720Z,988.79
2018-06-27T06:16:49.723Z,988.82
2018-06-27T06:17:49.722Z,988.79
2018-06-27T06:18:49.725Z,988.82
2018-06-27T06:19:49.756Z,988.81
2018-06-27T06:20:49.730Z,988.83
2018-06-27T06:21:49.731Z,988.84
2018-06-27T06:22:49.739Z,988.86
2018-06-27T06:23:49.736Z,988.86
2018-06-27T06:24:49.737Z,988.87
2018-06-27T06:25:49.733Z,988.89
2018-06-27T06:26:49.745Z,988.92
2018-06-27T06:27:49.747Z,988.87
2018-06-27T06:28:49.744Z,988.88
2018-06-27T06:29:49.748Z,988.93
2018-06-27T06:30:49.751Z,988.90
2018-06-27T06:31:49.752Z,988.95
2018-06-27T06:32:49.757Z,988.93
2018-06-27T06:33:49.756Z,988.98
2018-06-27T06:34:49.754Z,988.96
2018-06-27T06:35:49.775Z,988.94
2018-06-27T06:36:49.761Z,988.90
2018-06-27T06:37:49.766Z,988.93
2018-06-27T06:38:49.768Z,988.88
2018-06-27T06:39:49.770Z,988.89
2018-06-27T06:40:49.820Z,988.91
2018-06-27T06:41:49.774Z,988.93
2018-06-27T06:42:49.778Z,988.92
2018-06-27T06:43:49.780Z,988.97
2018-06-27T06:44:49.781Z,988.99
2018-06-27T06:45:49.784Z,989.01
2018-06-27T06:46:49.788Z,989.00
2018-06-27T06:47:49.789Z,989.04
2018-06-27T06:48:49.790Z,989.05
2018-06-27T06:49:49.796Z,989.08
2018-06-27T06:50:49.799Z,989.11
2018-06-27T06:51:49.800Z,989.15
2018-06-27T06:52:49.804Z,989.12
2018-06-27T06:53:49.805Z,989.14
2018-06-27T06:54:49.814Z,989.16
2018-06-27T06:55:49.810Z,989.15
2018-06-27T06:56:49.812Z,989.10
2018-06-27T06:57:49.818Z,989.16
2018-06-27T06:58:49.908Z,989.14
2018-06-27T06:59:49.825Z,989.19
2018-06-27T07:00:49.837Z,989.13
2018-06-27T07:01:49.826Z,989.12
2018-06-27T07:02:49.828Z,989.13
2018-06-27T07:03:49.837Z,989.17
2018-06-27T07:04:49.853Z,989.19
2018-06-27T07:05:49.838Z,989.18
2018-06-27T07:06:49.841Z,989.20
2018-06-27T07:07:49.843Z,989.14
2018-06-27T07:08:49.846Z,989.17
2018-06-27T07:09:49.849Z,989.07
2018-06-27T07:10:49.852Z,989.07
2018-06-27T07:11:49.855Z,989.08
2018-06-27T07:12:49.859Z,989.07
2018-06-27T07:13:49.860Z,989.10
2018-06-27T07:14:49.863Z,989.08
2018-06-27T07:15:49.868Z,989.10
2018-06-27T07:16:49.869Z,989.04
2018-06-27T07:17:49.924Z,989.01
2018-06-27T07:18:49.875Z,989.02
2018-06-27T07:19:49.880Z,989.07
2018-06-27T07:20:49.875Z,989.04
2018-06-27T07:21:49.885Z,989.09
2018-06-27T07:22:49.892Z,989.07
2018-06-27T07:23:49.889Z,989.05
2018-06-27T07:24:49.896Z,989.05
2018-06-27T07:25:49.898Z,989.06
2018-06-27T07:26:49.900Z,989.09
2018-06-27T07:27:49.905Z,989.11
2018-06-27T07:28:49.910Z,989.10
2018-06-27T07:29:49.907Z,989.10
2018-06-27T07:30:49.918Z,989.13
2018-06-27T07:31:49.915Z,989.09
2018-06-27T07:32:49.919Z,989.08
2018-06-27T07:33:49.922Z,989.17
2018-06-27T07:34:49.942Z,989.12
2018-06-27T07:35:49.975Z,989.13
2018-06-27T07:36:49.931Z,989.08
2018-06-27T07:37:49.935Z,989.17
2018-06-27T07:38:49.938Z,989.11
2018-06-27T07:39:49.942Z,989.12
2018-06-27T07:40:49.954Z,989.13
2018-06-27T07:41:49.948Z,989.10
2018-06-27T07:42:49.951Z,989.05
2018-06-27T07:43:49.954Z,989.06
2018-06-27T07:44:49.960Z,989.06
2018-06-27T07:45:49.961Z,989.08
2018-06-27T07:46:49.966Z,989.06
2018-06-27T07:47:49.971Z,989.06
2018-06-27T07:48:49.970Z,989.10
2018-06-27T07:49:49.991Z,989.11
2018-06-27T07:50:49.981Z,989.10
2018-06-27T07:51:49.983Z,989.04
2018-06-27T07:52:49.987Z,989.11
2018-06-27T07:53:49.990Z,989.10
2018-06-27T07:54:49.993Z,989.12
2018-06-27T07:55:49.995Z,989.11
2018-06-27T07:56:50.001Z,989.15
2018-06-27T07:57:50.000Z,989.06
2018-06-27T07:58:50.006Z,989.14
2018-06-27T07:59:50.012Z,989.10
2018-06-27T08:00:50.009Z,989.10
2018-06-27T08:01:50.018Z,989.10
2018-06-27T08:02:50.022Z,989.10
2018-06-27T08:03:50.018Z,989.04
2018-06-27T08:04:50.027Z,989.04
2018-06-27T08:05:50.077Z,989.12
2018-06-27T08:06:50.036Z,989.11
2018-06-27T08:07:50.047Z,989.10
2018-06-27T08:08:50.040Z,989.11
2018-06-27T08:09:50.045Z,989.11
2018-06-27T08:10:50.052Z,988.99
2018-06-27T08:11:50.048Z,989.11
2018-06-27T08:12:50.053Z,989.15
2018-06-27T08:13:50.059Z,989.00
2018-06-27T08:14:50.062Z,989.10
2018-06-27T08:15:50.066Z,989.07
2018-06-27T08:16:50.068Z,989.11
2018-06-27T08:17:50.105Z,989.12
2018-06-27T08:18:50.078Z,989.12
2018-06-27T08:19:50.081Z,989.05
2018-06-27T08:20:50.084Z,989.07
2018-06-27T08:21:50.086Z,989.03
2018-06-27T08:22:50.090Z,989.09
2018-06-27T08:23:50.095Z,989.03
2018-06-27T08:24:50.099Z,989.07
2018-06-27T08:25:50.101Z,989.10
2018-06-27T08:26:50.105Z,989.14
2018-06-27T08:27:50.113Z,989.08
2018-06-27T08:28:50.111Z,989.13
2018-06-27T08:29:50.116Z,989.13
2018-06-27T08:30:50.120Z,989.11
2018-06-27T08:31:50.132Z,989.09
2018-06-27T08:32:50.127Z,989.11
2018-06-27T08:33:50.134Z,989.06
2018-06-27T08:34:50.135Z,989.03
2018-06-27T08:35:50.139Z,989.14
2018-06-27T08:36:50.145Z,989.10
2018-06-27T08:37:50.148Z,989.14
2018-06-27T08:38:50.152Z,989.12
2018-06-27T08:39:50.154Z,989.09
2018-06-27T08:40:50.157Z,989.12
2018-06-27T08:41:50.161Z,989.05
2018-06-27T08:42:50.161Z,989.08
2018-06-27T08:43:50.174Z,989.09
2018-06-27T08:44:50.174Z,989.10
2018-06-27T08:45:50.178Z,989.12
2018-06-27T08:46:50.186Z,989.11
2018-06-27T08:47:50.186Z,989.10
2018-06-27T08:48:50.190Z,989.12
2018-06-27T08:49:50.255Z,989.10
2018-06-27T08:50:50.204Z,989.06
2018-06-27T08:51:50.205Z,989.06
2018-06-27T08:52:50.212Z,989.15
2018-06-27T08:53:50.214Z,989.01
2018-06-27T08:54:50.218Z,989.10
2018-06-27T08:55:50.222Z,989.06
2018-06-27T08:56:50.226Z,989.05
2018-06-27T08:57:50.232Z,988.99
2018-06-27T08:58:50.301Z,988.99
2018-06-27T08:59:50.239Z,989.09
2018-06-27T09:00:50.247Z,989.05
2018-06-27T09:01:50.249Z,988.98
2018-06-27T09:02:50.254Z,989.12
2018-06-27T09:03:50.259Z,989.11
2018-06-27T09:04:50.256Z,989.08
2018-06-27T09:05:50.262Z,989.08
2018-06-27T09:06:50.280Z,989.13
2018-06-27T09:07:50.369Z,989.14
2018-06-27T09:08:50.283Z,989.10
2018-06-27T09:09:50.290Z,989.05
2018-06-27T09:10:50.292Z,989.07
2018-06-27T09:11:50.297Z,989.03
2018-06-27T09:12:50.361Z,989.11
2018-06-27T09:13:50.307Z,989.05
2018-06-27T09:14:50.313Z,989.05
2018-06-27T09:15:50.321Z,989.12
2018-06-27T09:16:50.319Z,989.13
2018-06-27T09:17:50.328Z,989.07
2018-06-27T09:18:50.333Z,989.05
2018-06-27T09:19:50.337Z,989.11
2018-06-27T09:20:50.341Z,989.16
2018-06-27T09:21:50.346Z,989.18
2018-06-27T09:22:50.350Z,989.15
2018-06-27T09:23:50.354Z,989.13
2018-06-27T09:24:50.360Z,989.22
2018-06-27T09:25:50.365Z,989.24
2018-06-27T09:26:50.371Z,989.22
2018-06-27T09:27:50.370Z,989.28
2018-06-27T09:28:50.373Z,989.23
2018-06-27T09:29:50.390Z,989.23
2018-06-27T09:30:50.386Z,989.24
2018-06-27T09:31:50.394Z,989.36
2018-06-27T09:32:50.402Z,989.28
2018-06-27T09:33:50.407Z,989.27
2018-06-27T09:34:50.415Z,989.25
2018-06-27T09:35:50.415Z,989.26
2018-06-27T09:36:50.421Z,989.27
2018-06-27T09:37:50.428Z,989.21
2018-06-27T09:38:50.434Z,989.21
2018-06-27T09:39:50.438Z,989.17
2018-06-27T09:40:50.443Z,989.18
2018-06-27T09:41:50.483Z,989.25
2018-06-27T09:42:50.454Z,989.18
2018-06-27T09:43:50.459Z,989.22
2018-06-27T09:44:50.469Z,989.16
2018-06-27T09:45:50.470Z,989.18
2018-06-27T09:46:50.476Z,989.12
2018-06-27T09:47:50.482Z,989.19
2018-06-27T09:48:50.489Z,989.24
2018-06-27T09:49:50.494Z,989.21
2018-06-27T09:50:50.505Z,989.14
2018-06-27T09:51:50.506Z,989.26
2018-06-27T09:52:50.512Z,989.25
2018-06-27T09:53:50.519Z,989.18
2018-06-27T09:54:50.525Z,989.19
2018-06-27T09:55:50.531Z,989.22
2018-06-27T09:56:50.558Z,989.21
2018-06-27T09:57:50.542Z,989.23
2018-06-27T09:58:50.554Z,989.25
2018-06-27T09:59:50.557Z,989.19
2018-06-27T10:00:50.562Z,989.19
2018-06-27T10:01:50.571Z,989.17
2018-06-27T10:02:50.573Z,989.18
2018-06-27T10:03:50.583Z,989.14
2018-06-27T10:04:50.581Z,989.17
2018-06-27T10:05:50.592Z,989.17
2018-06-27T10:06:50.598Z,989.14
2018-06-27T10:07:50.609Z,989.14
2018-06-27T10:08:50.612Z,989.15
2018-06-27T10:09:50.617Z,989.16
2018-06-27T10:10:50.621Z,989.16
2018-06-27T10:11:50.630Z,989.14
2018-06-27T10:12:50.636Z,989.14
2018-06-27T10:13:50.645Z,989.14
2018-06-27T10:14:50.648Z,989.15
2018-06-27T10:15:50.655Z,989.18
2018-06-27T10:16:50.668Z,989.14
2018-06-27T10:17:50.665Z,989.04
2018-06-27T10:18:50.666Z,989.06
2018-06-27T10:19:50.674Z,989.07
2018-06-27T10:20:50.684Z,989.09
2018-06-27T10:21:50.704Z,989.03
2018-06-27T10:22:50.696Z,989.06
2018-06-27T10:23:50.698Z,989.10
2018-06-27T10:24:50.709Z,989.11
2018-06-27T10:25:50.717Z,989.15
2018-06-27T10:26:50.714Z,989.13
2018-06-27T10:27:50.719Z,989.06
2018-06-27T10:28:50.733Z,989.17
2018-06-27T10:29:50.736Z,989.01
2018-06-27T10:30:50.743Z,989.10
2018-06-27T10:31:50.748Z,989.14
2018-06-27T10:32:50.753Z,989.13
2018-06-27T10:33:50.761Z,989.13
2018-06-27T10:34:50.778Z,989.12
2018-06-27T10:35:50.891Z,989.11
2018-06-27T10:36:50.779Z,989.10
2018-06-27T10:37:50.787Z,989.16
2018-06-27T10:38:50.793Z,989.16
2018-06-27T10:39:50.799Z,989.10
2018-06-27T10:40:50.804Z,989.13
2018-06-27T10:41:50.812Z,989.07
2018-06-27T10:42:50.822Z,989.09
2018-06-27T10:43:50.819Z,989.12
2018-06-27T10:44:50.843Z,989.09
2018-06-27T10:45:50.837Z,989.16
2018-06-27T10:46:50.843Z,989.11
2018-06-27T10:47:50.852Z,988.98
2018-06-27T10:48:50.856Z,989.23
2018-06-27T10:49:50.857Z,989.18
2018-06-27T10:50:50.872Z,989.11
2018-06-27T10:51:50.876Z,989.16
2018-06-27T10:52:50.884Z,989.17
2018-06-27T10:53:50.889Z,989.13
2018-06-27T10:54:50.896Z,989.09
2018-06-27T10:55:50.906Z,989.08
2018-06-27T10:56:50.906Z,989.08
2018-06-27T10:57:50.914Z,989.10
2018-06-27T10:58:50.925Z,989.16
2018-06-27T10:59:50.928Z,989.19
2018-06-27T11:00:50.933Z,989.20
2018-06-27T11:01:50.942Z,989.16
2018-06-27T11:02:50.951Z,989.22
2018-06-27T11:03:50.954Z,989.18
2018-06-27T11:04:50.959Z,989.18
2018-06-27T11:05:51.002Z,989.18
2018-06-27T11:06:50.976Z,989.19
2018-06-27T11:07:50.980Z,989.21
2018-06-27T11:08:50.986Z,989.21
2018-06-27T11:09:50.990Z,989.18
2018-06-27T11:10:51.002Z,989.18
2018-06-27T11:11:51.008Z,989.19
2018-06-27T11:12:51.013Z,989.15
2018-06-27T11:13:51.017Z,989.20
2018-06-27T11:14:51.028Z,989.21
2018-06-27T11:15:51.037Z,989.10
2018-06-27T11:16:51.041Z,989.20
2018-06-27T11:17:51.047Z,989.22
2018-06-27T11:18:51.056Z,989.16
2018-06-27T11:19:51.055Z,989.14
2018-06-27T11:20:51.067Z,989.18
2018-06-27T11:21:51.074Z,989.18
2018-06-27T11:22:51.082Z,989.16
2018-06-27T11:23:51.088Z,989.19
2018-06-27T11:24:51.094Z,989.15
2018-06-27T11:25:51.095Z,989.17
2018-06-27T11:26:51.173Z,989.17
2018-06-27T11:27:51.114Z,989.14
2018-06-27T11:28:51.120Z,989.15
2018-06-27T11:29:51.128Z,989.18
2018-06-27T11:30:51.133Z,989.18
2018-06-27T11:31:51.140Z,989.19
2018-06-27T11:32:51.219Z,989.19
2018-06-27T11:33:51.151Z,989.15
2018-06-27T11:34:51.159Z,989.14
2018-06-27T11:35:51.165Z,989.13
2018-06-27T11:36:51.171Z,989.11
2018-06-27T11:37:51.177Z,989.13
2018-06-27T11:38:51.284Z,989.17
2018-06-27T11:39:51.189Z,989.15
2018-06-27T11:40:51.195Z,989.16
2018-06-27T11:41:51.201Z,989.17
2018-06-27T11:42:51.227Z,989.23
2018-06-27T11:43:51.208Z,989.19
2018-06-27T11:44:51.220Z,989.16
2018-06-27T11:45:51.227Z,989.19
2018-06-27T11:46:51.233Z,989.22
2018-06-27T11:47:51.242Z,989.23
2018-06-27T11:48:51.252Z,989.23
2018-06-27T11:49:51.251Z,989.23
2018-06-27T11:50:51.258Z,989.24
2018-06-27T11:51:51.264Z,989.25
2018-06-27T11:52:51.274Z,989.24
2018-06-27T11:53:51.278Z,989.20
2018-06-27T11:54:51.279Z,989.25
2018-06-27T11:55:51.292Z,989.23
2018-06-27T11:56:51.293Z,989.17
2018-06-27T11:57:51.304Z,989.15
2018-06-27T11:58:51.308Z,989.20
2018-06-27T11:59:51.313Z,989.23
2018-06-27T12:00:51.321Z,989.18
2018-06-27T12:01:51.330Z,989.14
2018-06-27T12:02:51.337Z,989.15
2018-06-27T12:03:51.343Z,989.14
2018-06-27T12:04:51.349Z,989.14
2018-06-27T12:05:51.356Z,989.09
2018-06-27T12:06:51.364Z,989.06
2018-06-27T12:07:51.371Z,989.03
2018-06-27T12:08:51.378Z,989.01
2018-06-27T12:09:51.385Z,989.00
2018-06-27T12:10:51.392Z,989.03
2018-06-27T12:11:51.399Z,989.09
2018-06-27T12:12:51.405Z,989.08
2018-06-27T12:13:51.414Z,989.08
2018-06-27T12:14:51.416Z,989.07
2018-06-27T12:15:51.430Z,989.06
2018-06-27T12:16:51.457Z,989.07
2018-06-27T12:17:51.441Z,989.02
2018-06-27T12:18:51.449Z,988.96
2018-06-27T12:19:51.458Z,988.92
2018-06-27T12:20:51.465Z,988.88
2018-06-27T12:21:51.471Z,988.88
2018-06-27T12:22:51.479Z,988.83
2018-06-27T12:23:51.492Z,988.87
2018-06-27T12:24:51.494Z,988.79
2018-06-27T12:25:51.503Z,988.93
2018-06-27T12:26:51.509Z,988.86
2018-06-27T12:27:51.517Z,988.85
2018-06-27T12:28:51.524Z,988.65